Terminal Aerodrome Forecast
Issued by NWS Cleveland, OH

Home | Current Version | Previous Version | Graphics & Text | Print | Product List | Glossary On
Versions: 1 2 3 4 5 6 7 8 9 10 11 12 13 14 15 16
810
FTUS41 KCLE 202343
TAFCAK
TAF
KCAK 202343Z 2100/2124 09006KT P6SM BKN120
     FM210700 16010KT P6SM BKN100
     FM211300 18012KT P6SM VCSH OVC040
     FM211500 18012KT 6SM -SHRA VCTS OVC015CB
     FM212000 18012KT P6SM VCSH BKN015=

USA.gov is the U.S. government's official web portal to all federal, state and local government web resources and services.